createdAt,value
2019-03-09T00:02:23.718Z,97903.09
2019-03-09T00:04:54.083Z,97905.66
2019-03-09T00:07:24.484Z,97913.39
2019-03-09T00:09:54.824Z,97910.74
2019-03-09T00:12:25.267Z,97914.18
2019-03-09T00:14:55.443Z,97918.45
2019-03-09T00:17:25.800Z,97923.16
2019-03-09T00:19:59.189Z,97914.67
2019-03-09T00:22:29.553Z,97915.40
2019-03-09T00:25:10.521Z,97915.97
2019-03-09T00:27:48.080Z,97916.53
2019-03-09T00:30:43.551Z,97920.95
2019-03-09T00:33:13.886Z,97914.53
2019-03-09T00:35:44.118Z,97910.53
2019-03-09T00:38:14.387Z,97911.98
2019-03-09T00:40:44.705Z,97910.41
2019-03-09T00:43:15.123Z,97915.44
2019-03-09T00:45:45.405Z,97923.05
2019-03-09T00:48:15.975Z,97909.00
2019-03-09T00:50:46.182Z,97911.18
2019-03-09T00:53:16.647Z,97908.47
2019-03-09T00:55:46.928Z,97902.20
2019-03-09T00:58:17.187Z,97900.53
2019-03-09T01:00:47.559Z,97898.41
2019-03-09T01:03:17.915Z,97888.02
2019-03-09T01:05:48.224Z,97888.31
2019-03-09T01:08:18.825Z,97889.28
2019-03-09T01:10:49.117Z,97887.75
2019-03-09T01:13:19.401Z,97881.33
2019-03-09T01:15:49.681Z,97888.00
2019-03-09T01:18:19.985Z,97875.62
2019-03-09T01:20:50.291Z,97872.45
2019-03-09T01:23:20.615Z,97876.59
2019-03-09T01:25:51.119Z,97872.77
2019-03-09T01:28:21.408Z,97865.28
2019-03-09T01:30:51.764Z,97867.63
2019-03-09T01:33:22.085Z,97867.72
2019-03-09T01:35:52.370Z,97856.01
2019-03-09T01:38:22.777Z,97853.88
2019-03-09T01:40:53.122Z,97844.81
2019-03-09T01:43:23.489Z,97835.33
2019-03-09T01:45:53.876Z,97837.84
2019-03-09T01:48:24.297Z,97838.59
2019-03-09T01:50:54.693Z,97826.43
2019-03-09T01:53:25.009Z,97821.53
2019-03-09T01:55:55.364Z,97818.22
2019-03-09T01:58:25.693Z,97816.00
2019-03-09T02:00:55.989Z,97807.67
2019-03-09T02:03:26.236Z,97807.48
2019-03-09T02:05:56.530Z,97808.65
2019-03-09T02:08:26.848Z,97798.86
2019-03-09T02:10:57.144Z,97794.78
2019-03-09T02:13:27.548Z,97786.16
2019-03-09T02:15:57.914Z,97786.30
2019-03-09T02:18:28.298Z,97787.50
2019-03-09T02:20:58.518Z,97766.94
2019-03-09T02:23:28.840Z,97776.69
2019-03-09T02:25:59.063Z,97774.03
2019-03-09T02:28:29.293Z,97773.69
2019-03-09T02:30:59.659Z,97787.97
2019-03-09T02:33:30.007Z,97776.81
2019-03-09T02:36:00.224Z,97767.08
2019-03-09T02:38:38.785Z,97757.11
2019-03-09T02:41:08.967Z,97761.56
2019-03-09T02:43:39.398Z,97751.23
2019-03-09T02:46:09.773Z,97749.90
2019-03-09T02:48:40.095Z,97761.02
2019-03-09T02:51:10.512Z,97771.70
2019-03-09T02:53:40.757Z,97769.09
2019-03-09T02:56:11.186Z,97759.30
2019-03-09T02:58:41.540Z,97760.29
2019-03-09T03:01:34.675Z,97761.61
2019-03-09T03:04:05.046Z,97749.69
2019-03-09T03:06:35.449Z,97740.28
2019-03-09T03:09:07.567Z,97736.38
2019-03-09T03:11:37.837Z,97732.84
2019-03-09T03:14:08.117Z,97740.41
2019-03-09T03:16:38.321Z,97741.91
2019-03-09T03:19:08.661Z,97740.75
2019-03-09T03:21:38.820Z,97722.84
2019-03-09T03:24:09.021Z,97719.03
2019-03-09T03:26:39.426Z,97717.53
2019-03-09T03:29:09.820Z,97715.05
2019-03-09T03:31:40.188Z,97712.88
2019-03-09T03:34:10.472Z,97710.38
2019-03-09T03:36:40.763Z,97701.80
2019-03-09T03:39:11.420Z,97692.13
2019-03-09T03:41:41.795Z,97689.75
2019-03-09T03:44:12.337Z,97678.46
2019-03-09T03:46:42.711Z,97691.88
2019-03-09T03:49:13.049Z,97678.92
2019-03-09T03:51:43.299Z,97675.36
2019-03-09T03:54:13.564Z,97673.66
2019-03-09T03:56:43.905Z,97685.03
2019-03-09T03:59:14.249Z,97669.25
2019-03-09T04:01:44.658Z,97661.02
2019-03-09T04:04:15.045Z,97655.46
2019-03-09T04:06:45.777Z,97656.45
2019-03-09T04:09:16.123Z,97650.16
2019-03-09T04:11:46.838Z,97655.75
2019-03-09T04:14:17.268Z,97645.92
2019-03-09T04:16:47.539Z,97663.41
2019-03-09T04:19:17.831Z,97656.78
2019-03-09T04:21:48.242Z,97650.09
2019-03-09T04:24:18.400Z,97653.31
2019-03-09T04:26:48.717Z,97647.42
2019-03-09T04:29:19.022Z,97659.46
2019-03-09T04:31:49.427Z,97651.88
2019-03-09T04:34:19.745Z,97646.62
2019-03-09T04:37:00.798Z,97654.94
2019-03-09T04:39:31.150Z,97651.41
2019-03-09T04:42:01.537Z,97663.08
2019-03-09T04:44:31.828Z,97668.56
2019-03-09T04:47:02.207Z,97666.94
2019-03-09T04:49:32.496Z,97659.20
2019-03-09T04:52:02.859Z,97668.13
2019-03-09T04:54:33.002Z,97671.07
2019-03-09T04:57:03.257Z,97665.77
2019-03-09T04:59:33.418Z,97687.20
2019-03-09T05:02:03.767Z,97677.54
2019-03-09T05:04:53.347Z,97680.36
2019-03-09T05:07:40.232Z,97677.55
2019-03-09T05:10:51.301Z,97691.14
2019-03-09T05:13:59.913Z,97689.83
2019-03-09T05:16:30.073Z,97689.75
2019-03-09T05:19:00.291Z,97690.95
2019-03-09T05:21:30.603Z,97686.81
2019-03-09T05:24:00.931Z,97684.97
2019-03-09T05:26:31.246Z,97684.20
2019-03-09T05:29:01.481Z,97696.88
2019-03-09T05:31:31.806Z,97690.81
2019-03-09T05:34:02.067Z,97692.12
2019-03-09T05:36:32.305Z,97706.66
2019-03-09T05:39:02.611Z,97705.95
2019-03-09T05:41:33.010Z,97692.98
2019-03-09T05:44:03.282Z,97694.06
2019-03-09T05:46:33.551Z,97674.64
2019-03-09T05:49:03.774Z,97680.98
2019-03-09T05:51:34.142Z,97689.49
2019-03-09T05:54:04.535Z,97675.43
2019-03-09T05:56:34.942Z,97690.27
2019-03-09T05:59:05.352Z,97701.73
2019-03-09T06:01:35.698Z,97704.92
2019-03-09T06:04:06.109Z,97718.88
2019-03-09T06:06:36.427Z,97711.59
2019-03-09T06:09:07.535Z,97727.47
2019-03-09T06:11:37.719Z,97721.16
2019-03-09T06:14:08.014Z,97711.89
2019-03-09T06:16:38.415Z,97707.99
2019-03-09T06:19:08.798Z,97697.70
2019-03-09T06:21:39.033Z,97702.03
2019-03-09T06:24:09.271Z,97708.83
2019-03-09T06:26:39.554Z,97709.67
2019-03-09T06:29:10.453Z,97705.03
2019-03-09T06:31:40.651Z,97713.92
2019-03-09T06:34:10.742Z,97708.98
2019-03-09T06:37:08.383Z,97703.75
2019-03-09T06:39:45.858Z,97708.52
2019-03-09T06:42:45.210Z,97719.19
2019-03-09T06:45:17.863Z,97724.67
2019-03-09T06:47:48.213Z,97715.45
2019-03-09T06:50:20.510Z,97722.52
2019-03-09T06:52:50.935Z,97737.19
2019-03-09T06:55:21.314Z,97739.16
2019-03-09T06:57:51.643Z,97746.05
2019-03-09T07:00:34.348Z,97762.16
2019-03-09T07:03:04.823Z,97755.88
2019-03-09T07:05:35.180Z,97763.61
2019-03-09T07:08:05.600Z,97765.45
2019-03-09T07:10:36.001Z,97764.83
2019-03-09T07:13:06.429Z,97761.42
2019-03-09T07:15:47.088Z,97771.77
2019-03-09T07:18:26.798Z,97783.98
2019-03-09T07:20:57.110Z,97798.53
2019-03-09T07:23:27.489Z,97796.18
2019-03-09T07:25:57.842Z,97805.00
2019-03-09T07:28:28.194Z,97813.47
2019-03-09T07:30:58.498Z,97814.34
2019-03-09T07:33:28.749Z,97807.16
2019-03-09T07:35:59.118Z,97818.48
2019-03-09T07:38:29.438Z,97815.91
2019-03-09T07:40:59.877Z,97822.30
2019-03-09T07:43:30.164Z,97821.28
2019-03-09T07:46:00.333Z,97818.72
2019-03-09T07:48:30.607Z,97822.91
2019-03-09T07:51:00.884Z,97827.30
2019-03-09T07:53:31.124Z,97827.67
2019-03-09T07:56:01.427Z,97828.63
2019-03-09T07:58:31.603Z,97828.85
2019-03-09T08:01:01.865Z,97833.06
2019-03-09T08:03:32.104Z,97829.95
2019-03-09T08:06:02.350Z,97826.91
2019-03-09T08:08:32.686Z,97824.56
2019-03-09T08:11:02.990Z,97830.61
2019-03-09T08:13:33.301Z,97845.05
2019-03-09T08:16:03.711Z,97839.91
2019-03-09T08:18:33.846Z,97843.31
2019-03-09T08:21:04.075Z,97861.12
2019-03-09T08:23:34.244Z,97870.12
2019-03-09T08:26:04.691Z,97894.27
2019-03-09T08:28:35.003Z,97893.19
2019-03-09T08:31:05.368Z,97899.16
2019-03-09T08:33:35.771Z,97891.55
2019-03-09T08:36:06.053Z,97890.03
2019-03-09T08:38:36.297Z,97891.83
2019-03-09T08:41:06.587Z,97885.99
2019-03-09T08:43:37.034Z,97895.92
2019-03-09T08:46:07.394Z,97891.08
2019-03-09T08:48:37.606Z,97903.91
2019-03-09T08:51:07.912Z,97889.21
2019-03-09T08:53:38.142Z,97902.83
2019-03-09T08:56:08.468Z,97903.34
2019-03-09T08:58:38.656Z,97908.88
2019-03-09T09:01:08.954Z,97915.95
2019-03-09T09:03:39.068Z,97924.12
2019-03-09T09:06:09.299Z,97918.69
2019-03-09T09:08:39.520Z,97915.44
2019-03-09T09:11:09.895Z,97910.72
2019-03-09T09:13:40.064Z,97908.65
2019-03-09T09:16:10.200Z,97908.83
2019-03-09T09:18:40.267Z,97909.27
2019-03-09T09:21:10.637Z,97918.16
2019-03-09T09:23:40.811Z,97911.67
2019-03-09T09:26:11.152Z,97910.64
2019-03-09T09:28:41.332Z,97916.61
2019-03-09T09:31:11.537Z,97927.21
2019-03-09T09:33:41.814Z,97912.25
2019-03-09T09:36:12.196Z,97907.33
2019-03-09T09:38:42.517Z,97905.02
2019-03-09T09:41:12.823Z,97905.41
2019-03-09T09:43:43.212Z,97917.67
2019-03-09T09:46:13.495Z,97929.32
2019-03-09T09:48:43.843Z,97934.41
2019-03-09T09:51:14.325Z,97927.31
2019-03-09T09:53:44.553Z,97934.74
2019-03-09T09:56:14.818Z,97925.56
2019-03-09T09:58:45.036Z,97920.95
2019-03-09T10:01:15.277Z,97933.12
2019-03-09T10:03:45.487Z,97933.05
2019-03-09T10:06:15.735Z,97921.92
2019-03-09T10:08:45.959Z,97925.20
2019-03-09T10:11:16.354Z,97920.69
2019-03-09T10:13:46.697Z,97916.02
2019-03-09T10:16:16.932Z,97933.14
2019-03-09T10:18:47.101Z,97933.39
2019-03-09T10:21:17.346Z,97942.06
2019-03-09T10:23:47.642Z,97941.33
2019-03-09T10:26:18.038Z,97940.67
2019-03-09T10:28:49.340Z,97941.03
2019-03-09T10:31:19.666Z,97934.66
2019-03-09T10:33:49.850Z,97936.52
2019-03-09T10:36:20.093Z,97937.36
2019-03-09T10:38:50.398Z,97916.39
2019-03-09T10:41:20.672Z,97917.31
2019-03-09T10:43:50.980Z,97913.00
2019-03-09T10:46:21.327Z,97919.89
2019-03-09T10:48:51.645Z,97904.72
2019-03-09T10:51:21.992Z,97900.52
2019-03-09T10:53:52.286Z,97912.05
2019-03-09T10:56:22.521Z,97918.10
2019-03-09T10:58:52.758Z,97934.09
2019-03-09T11:01:23.055Z,97925.61
2019-03-09T11:03:53.323Z,97923.98
2019-03-09T11:06:23.734Z,97915.38
2019-03-09T11:08:54.026Z,97909.42
2019-03-09T11:11:24.473Z,97911.08
2019-03-09T11:13:54.686Z,97896.11
2019-03-09T11:16:24.912Z,97901.03
2019-03-09T11:18:55.046Z,97910.50
2019-03-09T11:21:25.360Z,97908.85
2019-03-09T11:23:55.738Z,97905.05
2019-03-09T11:26:26.284Z,97905.78
2019-03-09T11:28:56.540Z,97904.20
2019-03-09T11:31:26.886Z,97910.19
2019-03-09T11:33:57.143Z,97916.61
2019-03-09T11:36:27.467Z,97913.47
2019-03-09T11:38:57.927Z,97907.50
2019-03-09T11:41:28.284Z,97888.94
2019-03-09T11:43:58.619Z,97881.15
2019-03-09T11:46:28.825Z,97875.80
2019-03-09T11:48:59.042Z,97865.23
2019-03-09T11:51:29.203Z,97878.69
2019-03-09T11:53:59.448Z,97877.59
2019-03-09T11:56:29.710Z,97898.15
2019-03-09T11:58:59.921Z,97908.35
2019-03-09T12:01:30.173Z,97908.54
2019-03-09T12:04:00.489Z,97907.75
2019-03-09T12:06:30.867Z,97910.59
2019-03-09T12:09:01.206Z,97921.03
2019-03-09T12:11:31.600Z,97924.14
2019-03-09T12:14:02.092Z,97918.41
2019-03-09T12:16:32.502Z,97918.98
2019-03-09T12:19:02.847Z,97906.51
2019-03-09T12:21:33.100Z,97910.22
2019-03-09T12:24:03.420Z,97899.95
2019-03-09T12:26:33.768Z,97902.25
2019-03-09T12:29:04.019Z,97893.48
2019-03-09T12:31:34.271Z,97914.38
2019-03-09T12:34:04.587Z,97912.56
2019-03-09T12:36:34.800Z,97912.44
2019-03-09T12:39:07.203Z,97909.59
2019-03-09T12:41:37.612Z,97912.80
2019-03-09T12:44:07.980Z,97906.45
2019-03-09T12:46:38.298Z,97906.84
2019-03-09T12:49:08.581Z,97895.81
2019-03-09T12:51:38.924Z,97888.89
2019-03-09T12:54:09.279Z,97880.88
2019-03-09T12:56:39.655Z,97892.81
2019-03-09T12:59:09.867Z,97897.10
2019-03-09T13:01:40.138Z,97894.39
2019-03-09T13:04:13.925Z,97877.22
2019-03-09T13:06:44.515Z,97882.81
2019-03-09T13:09:14.755Z,97873.89
2019-03-09T13:11:45.059Z,97868.78
2019-03-09T13:14:15.244Z,97867.32
2019-03-09T13:16:45.521Z,97852.54
2019-03-09T13:19:15.893Z,97848.19
2019-03-09T13:21:46.199Z,97858.86
2019-03-09T13:24:16.587Z,97846.66
2019-03-09T13:26:46.752Z,97838.44
2019-03-09T13:29:17.063Z,97835.00
2019-03-09T13:31:47.439Z,97822.09
2019-03-09T13:34:17.792Z,97815.30
2019-03-09T13:36:48.080Z,97805.97
2019-03-09T13:39:18.347Z,97789.31
2019-03-09T13:41:48.506Z,97780.05
2019-03-09T13:44:18.726Z,97765.33
2019-03-09T13:46:49.011Z,97774.41
2019-03-09T13:49:19.317Z,97769.62
2019-03-09T13:51:49.686Z,97764.82
2019-03-09T13:54:19.952Z,97767.34
2019-03-09T13:56:50.255Z,97767.94
2019-03-09T13:59:20.511Z,97761.30
2019-03-09T14:01:50.808Z,97768.08
2019-03-09T14:04:21.044Z,97764.92
2019-03-09T14:06:51.327Z,97754.91
2019-03-09T14:09:21.715Z,97753.16
2019-03-09T14:11:51.948Z,97757.12
2019-03-09T14:14:22.358Z,97760.89
2019-03-09T14:16:52.664Z,97765.62
2019-03-09T14:19:22.891Z,97764.05
2019-03-09T14:21:53.270Z,97724.07
2019-03-09T14:24:23.514Z,97722.06
2019-03-09T14:26:53.832Z,97741.89
2019-03-09T14:29:24.081Z,97744.86
2019-03-09T14:31:54.447Z,97734.00
2019-03-09T14:34:24.808Z,97734.16
2019-03-09T14:36:55.195Z,97738.55
2019-03-09T14:39:25.439Z,97739.33
2019-03-09T14:41:55.732Z,97738.47
2019-03-09T14:44:25.895Z,97730.22
2019-03-09T14:46:56.241Z,97740.32
2019-03-09T14:49:26.525Z,97742.50
2019-03-09T14:51:56.837Z,97760.56
2019-03-09T14:54:27.224Z,97769.50
2019-03-09T14:56:57.634Z,97750.00
2019-03-09T14:59:28.056Z,97746.10
2019-03-09T15:01:58.363Z,97740.88
2019-03-09T15:04:28.844Z,97736.34
2019-03-09T15:07:03.768Z,97731.63
2019-03-09T15:09:34.047Z,97735.30
2019-03-09T15:12:04.546Z,97725.17
2019-03-09T15:14:34.760Z,97715.77
2019-03-09T15:17:05.021Z,97716.45
2019-03-09T15:19:35.266Z,97717.31
2019-03-09T15:22:05.480Z,97707.05
2019-03-09T15:24:35.762Z,97706.25
2019-03-09T15:27:06.116Z,97701.72
2019-03-09T15:29:36.458Z,97703.78
2019-03-09T15:32:06.775Z,97716.64
2019-03-09T15:34:37.036Z,97703.61
2019-03-09T15:37:07.302Z,97703.39
2019-03-09T15:39:37.759Z,97706.23
2019-03-09T15:42:08.179Z,97708.15
2019-03-09T15:44:38.632Z,97711.45
2019-03-09T15:47:09.061Z,97726.11
2019-03-09T15:49:39.492Z,97734.58
2019-03-09T15:52:10.438Z,97733.70
2019-03-09T15:54:41.063Z,97733.32
2019-03-09T15:57:11.385Z,97721.08
2019-03-09T15:59:41.815Z,97712.27
2019-03-09T16:02:12.927Z,97717.56
2019-03-09T16:04:43.178Z,97710.86
2019-03-09T16:07:13.400Z,97711.27
2019-03-09T16:09:43.606Z,97710.43
2019-03-09T16:12:13.744Z,97704.81
2019-03-09T16:14:44.052Z,97698.66
2019-03-09T16:17:14.333Z,97705.88
2019-03-09T16:19:44.595Z,97705.44
2019-03-09T16:22:14.866Z,97696.23
2019-03-09T16:24:45.091Z,97689.38
2019-03-09T16:27:15.431Z,97700.02
2019-03-09T16:29:45.687Z,97701.42
2019-03-09T16:32:16.003Z,97719.23
2019-03-09T16:34:46.198Z,97704.30
2019-03-09T16:37:16.502Z,97719.47
2019-03-09T16:39:46.986Z,97716.53
2019-03-09T16:42:17.474Z,97715.92
2019-03-09T16:44:47.778Z,97725.19
2019-03-09T16:47:18.083Z,97739.58
2019-03-09T16:49:48.438Z,97725.11
2019-03-09T16:52:18.848Z,97732.05
2019-03-09T16:54:49.184Z,97735.80
2019-03-09T16:57:19.589Z,97727.25
2019-03-09T16:59:50.027Z,97722.95
2019-03-09T17:02:27.572Z,97722.19
2019-03-09T17:04:52.477Z,97720.27
2019-03-09T17:07:22.810Z,97730.95
2019-03-09T17:09:53.130Z,97715.48
2019-03-09T17:12:23.424Z,97720.48
2019-03-09T17:14:53.671Z,97720.09
2019-03-09T17:17:24.115Z,97701.58
2019-03-09T17:19:54.291Z,97710.27
2019-03-09T17:22:32.726Z,97708.20
2019-03-09T17:24:56.678Z,97712.45
2019-03-09T17:27:27.860Z,97709.75
2019-03-09T17:29:57.996Z,97715.61
2019-03-09T17:32:28.206Z,97723.88
2019-03-09T17:34:58.413Z,97724.02
2019-03-09T17:37:28.743Z,97734.31
2019-03-09T17:39:59.100Z,97751.95
2019-03-09T17:42:29.474Z,97749.81
2019-03-09T17:45:00.468Z,97761.17
2019-03-09T17:47:30.823Z,97765.36
2019-03-09T17:50:00.994Z,97779.52
2019-03-09T17:52:31.389Z,97781.23
2019-03-09T17:55:01.919Z,97781.64
2019-03-09T17:57:32.175Z,97784.02
2019-03-09T18:00:02.451Z,97771.39
2019-03-09T18:02:32.701Z,97777.72
2019-03-09T18:05:02.977Z,97776.91
2019-03-09T18:07:34.415Z,97792.53
2019-03-09T18:10:06.214Z,97786.94
2019-03-09T18:12:36.436Z,97796.16
2019-03-09T18:15:07.718Z,97785.53
2019-03-09T18:17:38.108Z,97799.75
2019-03-09T18:20:08.773Z,97808.70
2019-03-09T18:22:39.010Z,97827.85
2019-03-09T18:25:09.433Z,97844.30
2019-03-09T18:27:39.784Z,97856.98
2019-03-09T18:30:10.339Z,97867.86
2019-03-09T18:32:40.807Z,97874.83
2019-03-09T18:35:11.251Z,97880.42
2019-03-09T18:37:41.502Z,97887.88
2019-03-09T18:40:11.955Z,97893.12
2019-03-09T18:42:42.339Z,97900.53
2019-03-09T18:45:16.072Z,97897.03
2019-03-09T18:47:46.684Z,97913.31
2019-03-09T18:50:17.255Z,97913.43
2019-03-09T18:52:47.711Z,97916.18
2019-03-09T18:55:18.235Z,97920.15
2019-03-09T18:57:48.800Z,97914.45
2019-03-09T19:00:19.331Z,97920.81
2019-03-09T19:02:49.822Z,97924.58
2019-03-09T19:05:20.261Z,97927.75
2019-03-09T19:07:50.681Z,97921.94
2019-03-09T19:10:21.978Z,97929.00
2019-03-09T19:12:52.462Z,97932.02
2019-03-09T19:15:22.899Z,97926.52
2019-03-09T19:17:53.360Z,97927.73
2019-03-09T19:20:23.815Z,97924.77
2019-03-09T19:22:54.222Z,97924.05
2019-03-09T19:25:24.524Z,97931.95
2019-03-09T19:27:54.971Z,97938.48
2019-03-09T19:30:25.373Z,97935.18
2019-03-09T19:33:00.304Z,97930.90
2019-03-09T19:35:27.804Z,97931.32
2019-03-09T19:37:58.054Z,97942.16
2019-03-09T19:40:28.760Z,97942.80
2019-03-09T19:42:59.220Z,97932.53
2019-03-09T19:45:29.639Z,97936.66
2019-03-09T19:48:00.093Z,97937.97
2019-03-09T19:50:30.462Z,97944.88
2019-03-09T19:53:00.875Z,97947.20
2019-03-09T19:55:31.357Z,97940.11
2019-03-09T19:58:01.696Z,97958.20
2019-03-09T20:00:32.046Z,97960.22
2019-03-09T20:03:02.321Z,97968.59
2019-03-09T20:05:32.570Z,97965.98
2019-03-09T20:08:02.824Z,97974.84
2019-03-09T20:10:33.026Z,97956.75
2019-03-09T20:13:03.311Z,97970.53
2019-03-09T20:15:33.689Z,97976.38
2019-03-09T20:18:03.937Z,97981.79
2019-03-09T20:20:34.215Z,97978.31
2019-03-09T20:23:04.523Z,97984.92
2019-03-09T20:25:34.868Z,97984.92
2019-03-09T20:28:05.216Z,97977.42
2019-03-09T20:30:35.617Z,97983.99
2019-03-09T20:33:06.219Z,97985.84
2019-03-09T20:35:36.418Z,97994.91
2019-03-09T20:38:06.677Z,97995.16
2019-03-09T20:40:36.860Z,97992.30
2019-03-09T20:43:07.373Z,98000.66
2019-03-09T20:45:37.595Z,98002.02
2019-03-09T20:48:08.014Z,97995.33
2019-03-09T20:50:38.307Z,97993.51
2019-03-09T20:53:08.679Z,98001.09
2019-03-09T20:55:38.981Z,98000.53
2019-03-09T20:58:09.364Z,98005.49
2019-03-09T21:03:35.002Z,98005.69
2019-03-09T21:06:05.342Z,98008.42
2019-03-09T21:08:35.547Z,98004.68
2019-03-09T21:11:05.909Z,98013.19
2019-03-09T21:13:36.150Z,98017.05
2019-03-09T21:16:06.530Z,98010.48
2019-03-09T21:18:36.754Z,98020.52
2019-03-09T21:21:07.071Z,98011.11
2019-03-09T21:23:37.246Z,98008.67
2019-03-09T21:26:07.564Z,98005.08
2019-03-09T21:28:37.826Z,98013.25
2019-03-09T21:31:08.296Z,98008.00
2019-03-09T21:33:38.663Z,98011.13
2019-03-09T21:36:09.101Z,98011.91
2019-03-09T21:38:39.371Z,98013.63
2019-03-09T21:41:10.695Z,98016.63
2019-03-09T21:43:40.939Z,98010.36
2019-03-09T21:46:11.468Z,98020.20
2019-03-09T21:48:41.639Z,98011.87
2019-03-09T21:51:11.942Z,97998.88
2019-03-09T21:53:42.181Z,98011.63
2019-03-09T21:56:12.403Z,98005.66
2019-03-09T21:58:42.674Z,98006.12
2019-03-09T22:01:13.071Z,98008.98
2019-03-09T22:03:43.354Z,98000.98
2019-03-09T22:06:13.582Z,98004.27
2019-03-09T22:08:43.969Z,98006.89
2019-03-09T22:11:14.250Z,98004.45
2019-03-09T22:13:44.540Z,98009.16
2019-03-09T22:16:14.940Z,98004.42
2019-03-09T22:18:45.099Z,97998.06
2019-03-09T22:21:15.369Z,98000.52
2019-03-09T22:23:45.702Z,98004.39
2019-03-09T22:26:16.022Z,98002.51
2019-03-09T22:28:46.359Z,97999.33
2019-03-09T22:31:16.659Z,97997.37
2019-03-09T22:33:46.927Z,97997.81
2019-03-09T22:36:17.245Z,97999.11
2019-03-09T22:38:47.517Z,97992.30
2019-03-09T22:41:17.905Z,97997.68
2019-03-09T22:43:48.159Z,98002.63
2019-03-09T22:46:18.482Z,97997.63
2019-03-09T22:48:48.632Z,98006.55
2019-03-09T22:51:19.003Z,98007.65
2019-03-09T22:53:49.359Z,97997.30
2019-03-09T22:56:19.608Z,97990.68
2019-03-09T22:58:50.000Z,97999.99
2019-03-09T23:01:20.597Z,97998.73
2019-03-09T23:03:50.969Z,97994.15
2019-03-09T23:06:21.330Z,97992.86
2019-03-09T23:08:51.707Z,97997.04
2019-03-09T23:11:22.172Z,97995.48
2019-03-09T23:13:52.338Z,97994.54
2019-03-09T23:16:22.706Z,97985.88
2019-03-09T23:18:53.030Z,97988.50
2019-03-09T23:21:23.286Z,97970.62
2019-03-09T23:23:53.517Z,97974.20
2019-03-09T23:26:23.810Z,97971.05
2019-03-09T23:28:54.117Z,97973.70
2019-03-09T23:31:24.571Z,97981.81
2019-03-09T23:33:54.809Z,97978.25
2019-03-09T23:36:25.241Z,97974.81
2019-03-09T23:38:55.527Z,97980.45
2019-03-09T23:41:25.812Z,97976.50
2019-03-09T23:43:56.020Z,97970.30
2019-03-09T23:46:26.371Z,97972.47
2019-03-09T23:48:57.134Z,97970.13
2019-03-09T23:51:27.473Z,97958.61
2019-03-09T23:53:57.829Z,97957.55
2019-03-09T23:56:28.245Z,97949.95
2019-03-09T23:58:58.632Z,97947.81
